sensor_id;sensor_type;location;lat;lon;timestamp;P1;durP1;ratioP1;P2;durP2;ratioP2
77298;SDS011;66361;52.034;20.656;2023-01-08T00:00:39;36.70;;;17.25;;
77298;SDS011;66361;52.034;20.656;2023-01-08T00:05:03;43.88;;;19.38;;
77298;SDS011;66361;52.034;20.656;2023-01-08T00:09:08;37.88;;;17.13;;
77298;SDS011;66361;52.034;20.656;2023-01-08T00:13:11;44.97;;;20.92;;
77298;SDS011;66361;52.034;20.656;2023-01-08T00:21:17;46.17;;;18.48;;
77298;SDS011;66361;52.034;20.656;2023-01-08T00:25:22;39.80;;;17.33;;
77298;SDS011;66361;52.034;20.656;2023-01-08T00:29:25;43.97;;;18.00;;
77298;SDS011;66361;52.034;20.656;2023-01-08T00:33:28;40.63;;;19.45;;
77298;SDS011;66361;52.034;20.656;2023-01-08T00:37:31;43.30;;;18.58;;
77298;SDS011;66361;52.034;20.656;2023-01-08T00:41:35;43.13;;;18.45;;
77298;SDS011;66361;52.034;20.656;2023-01-08T00:45:39;41.15;;;17.90;;
77298;SDS011;66361;52.034;20.656;2023-01-08T00:49:41;33.75;;;15.93;;
77298;SDS011;66361;52.034;20.656;2023-01-08T00:53:45;45.50;;;19.55;;
77298;SDS011;66361;52.034;20.656;2023-01-08T00:57:49;43.90;;;20.23;;
77298;SDS011;66361;52.034;20.656;2023-01-08T01:01:52;47.28;;;20.65;;
77298;SDS011;66361;52.034;20.656;2023-01-08T01:05:59;36.88;;;14.60;;
77298;SDS011;66361;52.034;20.656;2023-01-08T01:10:02;38.80;;;17.35;;
77298;SDS011;66361;52.034;20.656;2023-01-08T01:14:08;24.67;;;14.57;;
77298;SDS011;66361;52.034;20.656;2023-01-08T01:18:14;35.30;;;14.80;;
77298;SDS011;66361;52.034;20.656;2023-01-08T01:22:17;28.90;;;14.45;;
77298;SDS011;66361;52.034;20.656;2023-01-08T01:26:21;29.05;;;14.98;;
77298;SDS011;66361;52.034;20.656;2023-01-08T01:30:26;25.33;;;10.25;;
77298;SDS011;66361;52.034;20.656;2023-01-08T01:34:29;34.75;;;13.80;;
77298;SDS011;66361;52.034;20.656;2023-01-08T01:38:32;38.53;;;16.55;;
77298;SDS011;66361;52.034;20.656;2023-01-08T01:42:35;41.13;;;17.55;;
77298;SDS011;66361;52.034;20.656;2023-01-08T01:46:43;37.05;;;16.98;;
77298;SDS011;66361;52.034;20.656;2023-01-08T01:50:47;33.58;;;16.30;;
77298;SDS011;66361;52.034;20.656;2023-01-08T01:54:54;34.95;;;15.50;;
77298;SDS011;66361;52.034;20.656;2023-01-08T01:58:58;30.60;;;15.77;;
77298;SDS011;66361;52.034;20.656;2023-01-08T02:07:08;36.22;;;14.45;;
77298;SDS011;66361;52.034;20.656;2023-01-08T02:11:19;44.22;;;20.45;;
77298;SDS011;66361;52.034;20.656;2023-01-08T02:15:28;42.00;;;17.85;;
77298;SDS011;66361;52.034;20.656;2023-01-08T02:19:39;34.92;;;16.40;;
77298;SDS011;66361;52.034;20.656;2023-01-08T02:23:48;43.72;;;18.30;;
77298;SDS011;66361;52.034;20.656;2023-01-08T02:28:02;36.35;;;16.90;;
77298;SDS011;66361;52.034;20.656;2023-01-08T02:32:09;34.25;;;15.77;;
77298;SDS011;66361;52.034;20.656;2023-01-08T02:36:16;40.55;;;16.23;;
77298;SDS011;66361;52.034;20.656;2023-01-08T02:40:26;40.35;;;16.70;;
77298;SDS011;66361;52.034;20.656;2023-01-08T02:44:42;39.60;;;17.75;;
77298;SDS011;66361;52.034;20.656;2023-01-08T02:48:52;22.17;;;11.02;;
77298;SDS011;66361;52.034;20.656;2023-01-08T02:53:01;26.08;;;9.90;;
77298;SDS011;66361;52.034;20.656;2023-01-08T02:57:10;32.30;;;14.82;;
77298;SDS011;66361;52.034;20.656;2023-01-08T03:01:17;31.90;;;13.82;;
77298;SDS011;66361;52.034;20.656;2023-01-08T03:05:23;20.92;;;10.85;;
77298;SDS011;66361;52.034;20.656;2023-01-08T03:09:28;23.02;;;9.55;;
77298;SDS011;66361;52.034;20.656;2023-01-08T03:13:34;28.05;;;14.48;;
77298;SDS011;66361;52.034;20.656;2023-01-08T03:17:45;27.33;;;13.10;;
77298;SDS011;66361;52.034;20.656;2023-01-08T03:21:51;31.85;;;13.77;;
77298;SDS011;66361;52.034;20.656;2023-01-08T03:25:55;24.85;;;9.68;;
77298;SDS011;66361;52.034;20.656;2023-01-08T03:30:03;34.33;;;14.18;;
77298;SDS011;66361;52.034;20.656;2023-01-08T03:34:09;29.40;;;13.63;;
77298;SDS011;66361;52.034;20.656;2023-01-08T03:38:16;35.15;;;16.02;;
77298;SDS011;66361;52.034;20.656;2023-01-08T03:42:22;24.15;;;10.80;;
77298;SDS011;66361;52.034;20.656;2023-01-08T03:46:27;33.70;;;14.75;;
77298;SDS011;66361;52.034;20.656;2023-01-08T03:50:36;31.42;;;13.60;;
77298;SDS011;66361;52.034;20.656;2023-01-08T03:54:39;20.55;;;11.05;;
77298;SDS011;66361;52.034;20.656;2023-01-08T03:58:42;37.72;;;16.05;;
77298;SDS011;66361;52.034;20.656;2023-01-08T04:02:45;25.70;;;11.93;;
77298;SDS011;66361;52.034;20.656;2023-01-08T04:06:50;30.00;;;13.20;;
77298;SDS011;66361;52.034;20.656;2023-01-08T04:10:54;25.80;;;12.85;;
77298;SDS011;66361;52.034;20.656;2023-01-08T04:14:57;26.60;;;13.50;;
77298;SDS011;66361;52.034;20.656;2023-01-08T04:19:00;24.98;;;11.88;;
77298;SDS011;66361;52.034;20.656;2023-01-08T04:23:04;33.72;;;16.42;;
77298;SDS011;66361;52.034;20.656;2023-01-08T04:27:07;23.08;;;10.35;;
77298;SDS011;66361;52.034;20.656;2023-01-08T04:31:10;38.80;;;17.20;;
77298;SDS011;66361;52.034;20.656;2023-01-08T04:35:14;30.70;;;12.65;;
77298;SDS011;66361;52.034;20.656;2023-01-08T04:39:18;37.92;;;14.60;;
77298;SDS011;66361;52.034;20.656;2023-01-08T04:43:21;15.18;;;8.57;;
77298;SDS011;66361;52.034;20.656;2023-01-08T04:47:24;25.85;;;13.30;;
77298;SDS011;66361;52.034;20.656;2023-01-08T04:55:52;27.23;;;11.25;;
77298;SDS011;66361;52.034;20.656;2023-01-08T04:59:55;31.08;;;13.80;;
77298;SDS011;66361;52.034;20.656;2023-01-08T05:03:59;30.10;;;12.65;;
77298;SDS011;66361;52.034;20.656;2023-01-08T05:08:07;22.30;;;11.75;;
77298;SDS011;66361;52.034;20.656;2023-01-08T05:12:11;18.02;;;9.43;;
77298;SDS011;66361;52.034;20.656;2023-01-08T05:16:14;26.90;;;12.82;;
77298;SDS011;66361;52.034;20.656;2023-01-08T05:20:18;21.25;;;10.15;;
77298;SDS011;66361;52.034;20.656;2023-01-08T05:24:21;26.33;;;10.77;;
77298;SDS011;66361;52.034;20.656;2023-01-08T05:28:25;26.55;;;13.77;;
77298;SDS011;66361;52.034;20.656;2023-01-08T05:32:29;20.20;;;10.93;;
77298;SDS011;66361;52.034;20.656;2023-01-08T05:36:33;17.65;;;10.57;;
77298;SDS011;66361;52.034;20.656;2023-01-08T05:40:35;28.35;;;13.68;;
77298;SDS011;66361;52.034;20.656;2023-01-08T05:44:40;17.05;;;9.65;;
77298;SDS011;66361;52.034;20.656;2023-01-08T05:48:43;28.85;;;13.30;;
77298;SDS011;66361;52.034;20.656;2023-01-08T05:52:46;23.42;;;12.85;;
77298;SDS011;66361;52.034;20.656;2023-01-08T05:56:49;28.63;;;12.40;;
77298;SDS011;66361;52.034;20.656;2023-01-08T06:00:59;19.67;;;11.38;;
77298;SDS011;66361;52.034;20.656;2023-01-08T06:05:04;23.73;;;11.73;;
77298;SDS011;66361;52.034;20.656;2023-01-08T06:09:07;24.65;;;11.88;;
77298;SDS011;66361;52.034;20.656;2023-01-08T06:13:11;23.58;;;12.55;;
77298;SDS011;66361;52.034;20.656;2023-01-08T06:17:15;27.15;;;12.55;;
77298;SDS011;66361;52.034;20.656;2023-01-08T06:21:19;17.88;;;9.93;;
77298;SDS011;66361;52.034;20.656;2023-01-08T06:25:22;21.65;;;11.40;;
77298;SDS011;66361;52.034;20.656;2023-01-08T06:29:25;21.25;;;11.73;;
77298;SDS011;66361;52.034;20.656;2023-01-08T06:33:29;18.77;;;9.77;;
77298;SDS011;66361;52.034;20.656;2023-01-08T06:37:32;24.73;;;14.68;;
77298;SDS011;66361;52.034;20.656;2023-01-08T06:41:35;14.68;;;8.45;;
77298;SDS011;66361;52.034;20.656;2023-01-08T06:45:40;20.73;;;12.20;;
77298;SDS011;66361;52.034;20.656;2023-01-08T06:49:44;24.17;;;13.95;;
77298;SDS011;66361;52.034;20.656;2023-01-08T06:53:47;11.45;;;7.90;;
77298;SDS011;66361;52.034;20.656;2023-01-08T06:57:52;21.42;;;10.35;;
77298;SDS011;66361;52.034;20.656;2023-01-08T07:01:55;15.98;;;10.10;;
77298;SDS011;66361;52.034;20.656;2023-01-08T07:06:02;19.35;;;11.18;;
77298;SDS011;66361;52.034;20.656;2023-01-08T07:10:05;20.50;;;11.95;;
77298;SDS011;66361;52.034;20.656;2023-01-08T07:14:08;18.10;;;10.57;;
77298;SDS011;66361;52.034;20.656;2023-01-08T07:18:12;17.17;;;8.70;;
77298;SDS011;66361;52.034;20.656;2023-01-08T07:22:16;21.58;;;10.90;;
77298;SDS011;66361;52.034;20.656;2023-01-08T07:26:20;13.98;;;7.70;;
77298;SDS011;66361;52.034;20.656;2023-01-08T07:30:23;19.63;;;10.02;;
77298;SDS011;66361;52.034;20.656;2023-01-08T07:34:30;16.92;;;9.65;;
77298;SDS011;66361;52.034;20.656;2023-01-08T07:38:36;20.20;;;12.02;;
77298;SDS011;66361;52.034;20.656;2023-01-08T07:42:39;16.23;;;9.00;;
77298;SDS011;66361;52.034;20.656;2023-01-08T07:46:43;12.48;;;8.25;;
77298;SDS011;66361;52.034;20.656;2023-01-08T07:50:46;18.08;;;10.35;;
77298;SDS011;66361;52.034;20.656;2023-01-08T07:54:50;13.95;;;8.30;;
77298;SDS011;66361;52.034;20.656;2023-01-08T07:58:53;19.73;;;10.77;;
77298;SDS011;66361;52.034;20.656;2023-01-08T08:03:00;15.63;;;9.52;;
77298;SDS011;66361;52.034;20.656;2023-01-08T08:07:05;12.73;;;7.53;;
77298;SDS011;66361;52.034;20.656;2023-01-08T08:11:11;18.88;;;11.52;;
77298;SDS011;66361;52.034;20.656;2023-01-08T08:15:14;17.98;;;9.63;;
77298;SDS011;66361;52.034;20.656;2023-01-08T08:19:17;19.33;;;12.10;;
77298;SDS011;66361;52.034;20.656;2023-01-08T08:23:20;15.95;;;9.25;;
77298;SDS011;66361;52.034;20.656;2023-01-08T08:27:24;15.45;;;7.88;;
77298;SDS011;66361;52.034;20.656;2023-01-08T08:31:27;15.48;;;9.00;;
77298;SDS011;66361;52.034;20.656;2023-01-08T08:39:35;9.30;;;7.28;;
77298;SDS011;66361;52.034;20.656;2023-01-08T08:43:40;13.07;;;8.20;;
77298;SDS011;66361;52.034;20.656;2023-01-08T08:47:44;11.55;;;7.28;;
77298;SDS011;66361;52.034;20.656;2023-01-08T08:51:47;17.23;;;9.52;;
77298;SDS011;66361;52.034;20.656;2023-01-08T08:55:49;16.40;;;10.15;;
77298;SDS011;66361;52.034;20.656;2023-01-08T08:59:54;15.10;;;8.32;;
77298;SDS011;66361;52.034;20.656;2023-01-08T09:03:58;15.52;;;7.82;;
77298;SDS011;66361;52.034;20.656;2023-01-08T09:08:01;13.07;;;8.27;;
77298;SDS011;66361;52.034;20.656;2023-01-08T09:12:05;12.90;;;8.38;;
77298;SDS011;66361;52.034;20.656;2023-01-08T09:16:09;15.77;;;8.18;;
77298;SDS011;66361;52.034;20.656;2023-01-08T09:20:13;16.63;;;9.20;;
77298;SDS011;66361;52.034;20.656;2023-01-08T09:24:16;16.38;;;8.40;;
77298;SDS011;66361;52.034;20.656;2023-01-08T09:32:24;10.63;;;6.90;;
77298;SDS011;66361;52.034;20.656;2023-01-08T09:36:27;12.73;;;7.85;;
77298;SDS011;66361;52.034;20.656;2023-01-08T09:40:31;11.45;;;7.25;;
77298;SDS011;66361;52.034;20.656;2023-01-08T09:44:39;11.27;;;7.90;;
77298;SDS011;66361;52.034;20.656;2023-01-08T09:48:46;12.70;;;8.10;;
77298;SDS011;66361;52.034;20.656;2023-01-08T09:52:51;13.20;;;8.23;;
77298;SDS011;66361;52.034;20.656;2023-01-08T09:56:54;12.98;;;8.05;;
77298;SDS011;66361;52.034;20.656;2023-01-08T10:01:00;12.48;;;8.52;;
77298;SDS011;66361;52.034;20.656;2023-01-08T10:05:10;17.45;;;10.40;;
77298;SDS011;66361;52.034;20.656;2023-01-08T10:09:15;15.88;;;7.85;;
77298;SDS011;66361;52.034;20.656;2023-01-08T10:13:18;13.98;;;7.95;;
77298;SDS011;66361;52.034;20.656;2023-01-08T10:17:23;14.10;;;8.18;;
77298;SDS011;66361;52.034;20.656;2023-01-08T10:21:31;9.82;;;6.28;;
77298;SDS011;66361;52.034;20.656;2023-01-08T10:25:48;17.65;;;11.15;;
77298;SDS011;66361;52.034;20.656;2023-01-08T10:30:02;12.40;;;7.38;;
77298;SDS011;66361;52.034;20.656;2023-01-08T10:34:08;18.00;;;9.15;;
77298;SDS011;66361;52.034;20.656;2023-01-08T10:38:22;9.68;;;7.18;;
77298;SDS011;66361;52.034;20.656;2023-01-08T10:42:28;13.50;;;8.88;;
77298;SDS011;66361;52.034;20.656;2023-01-08T10:46:40;11.43;;;7.05;;
77298;SDS011;66361;52.034;20.656;2023-01-08T10:50:45;8.40;;;5.88;;
77298;SDS011;66361;52.034;20.656;2023-01-08T10:54:50;15.00;;;8.30;;
77298;SDS011;66361;52.034;20.656;2023-01-08T10:58:53;17.17;;;9.15;;
77298;SDS011;66361;52.034;20.656;2023-01-08T11:02:57;12.45;;;7.97;;
77298;SDS011;66361;52.034;20.656;2023-01-08T11:07:03;11.43;;;7.65;;
77298;SDS011;66361;52.034;20.656;2023-01-08T11:11:09;18.77;;;9.13;;
77298;SDS011;66361;52.034;20.656;2023-01-08T11:15:22;13.63;;;7.97;;
77298;SDS011;66361;52.034;20.656;2023-01-08T11:19:31;13.75;;;9.30;;
77298;SDS011;66361;52.034;20.656;2023-01-08T11:23:35;15.20;;;9.63;;
77298;SDS011;66361;52.034;20.656;2023-01-08T11:31:46;15.43;;;8.38;;
77298;SDS011;66361;52.034;20.656;2023-01-08T11:35:58;13.23;;;8.00;;
77298;SDS011;66361;52.034;20.656;2023-01-08T11:40:10;12.68;;;6.82;;
77298;SDS011;66361;52.034;20.656;2023-01-08T11:44:22;16.67;;;9.30;;
77298;SDS011;66361;52.034;20.656;2023-01-08T11:48:55;11.70;;;8.65;;
77298;SDS011;66361;52.034;20.656;2023-01-08T11:53:19;18.35;;;10.23;;
77298;SDS011;66361;52.034;20.656;2023-01-08T11:57:31;17.08;;;10.07;;
77298;SDS011;66361;52.034;20.656;2023-01-08T12:01:46;17.02;;;9.93;;
77298;SDS011;66361;52.034;20.656;2023-01-08T12:06:00;15.00;;;9.02;;
77298;SDS011;66361;52.034;20.656;2023-01-08T12:10:14;16.88;;;10.07;;
77298;SDS011;66361;52.034;20.656;2023-01-08T12:14:31;19.98;;;13.00;;
77298;SDS011;66361;52.034;20.656;2023-01-08T12:18:59;18.45;;;10.77;;
77298;SDS011;66361;52.034;20.656;2023-01-08T12:23:23;20.70;;;12.27;;
77298;SDS011;66361;52.034;20.656;2023-01-08T12:27:40;19.23;;;10.02;;
77298;SDS011;66361;52.034;20.656;2023-01-08T12:32:04;20.23;;;11.98;;
77298;SDS011;66361;52.034;20.656;2023-01-08T12:36:22;17.08;;;10.57;;
77298;SDS011;66361;52.034;20.656;2023-01-08T12:40:31;18.38;;;10.32;;
77298;SDS011;66361;52.034;20.656;2023-01-08T12:44:39;18.20;;;9.88;;
77298;SDS011;66361;52.034;20.656;2023-01-08T12:48:44;22.08;;;12.75;;
77298;SDS011;66361;52.034;20.656;2023-01-08T12:52:54;22.65;;;12.75;;
77298;SDS011;66361;52.034;20.656;2023-01-08T12:57:04;22.23;;;12.48;;
77298;SDS011;66361;52.034;20.656;2023-01-08T13:01:15;21.85;;;12.45;;
77298;SDS011;66361;52.034;20.656;2023-01-08T13:05:28;16.77;;;9.70;;
77298;SDS011;66361;52.034;20.656;2023-01-08T13:09:35;24.30;;;12.32;;
77298;SDS011;66361;52.034;20.656;2023-01-08T13:13:39;21.27;;;13.00;;
77298;SDS011;66361;52.034;20.656;2023-01-08T13:17:46;11.35;;;8.25;;
77298;SDS011;66361;52.034;20.656;2023-01-08T13:21:50;19.88;;;12.45;;
77298;SDS011;66361;52.034;20.656;2023-01-08T13:25:56;18.73;;;10.90;;
77298;SDS011;66361;52.034;20.656;2023-01-08T13:30:01;18.35;;;10.27;;
77298;SDS011;66361;52.034;20.656;2023-01-08T13:38:19;17.92;;;10.23;;
77298;SDS011;66361;52.034;20.656;2023-01-08T13:42:24;21.73;;;12.13;;
77298;SDS011;66361;52.034;20.656;2023-01-08T13:46:29;21.45;;;12.15;;
77298;SDS011;66361;52.034;20.656;2023-01-08T13:50:33;21.30;;;12.45;;
77298;SDS011;66361;52.034;20.656;2023-01-08T13:54:38;19.77;;;11.85;;
77298;SDS011;66361;52.034;20.656;2023-01-08T13:58:49;22.23;;;11.65;;
77298;SDS011;66361;52.034;20.656;2023-01-08T14:02:55;22.52;;;11.77;;
77298;SDS011;66361;52.034;20.656;2023-01-08T14:07:09;20.92;;;11.90;;
77298;SDS011;66361;52.034;20.656;2023-01-08T14:11:15;20.77;;;11.82;;
77298;SDS011;66361;52.034;20.656;2023-01-08T14:15:25;27.63;;;15.73;;
77298;SDS011;66361;52.034;20.656;2023-01-08T14:19:30;24.85;;;14.43;;
77298;SDS011;66361;52.034;20.656;2023-01-08T14:27:38;29.70;;;15.23;;
77298;SDS011;66361;52.034;20.656;2023-01-08T14:31:45;21.65;;;10.48;;
77298;SDS011;66361;52.034;20.656;2023-01-08T14:35:49;23.13;;;12.00;;
77298;SDS011;66361;52.034;20.656;2023-01-08T14:39:53;24.02;;;11.77;;
77298;SDS011;66361;52.034;20.656;2023-01-08T14:43:56;20.80;;;11.82;;
77298;SDS011;66361;52.034;20.656;2023-01-08T14:48:01;21.17;;;10.75;;
77298;SDS011;66361;52.034;20.656;2023-01-08T14:52:12;29.25;;;14.70;;
77298;SDS011;66361;52.034;20.656;2023-01-08T14:56:18;27.42;;;14.18;;
77298;SDS011;66361;52.034;20.656;2023-01-08T15:00:25;21.88;;;12.50;;
77298;SDS011;66361;52.034;20.656;2023-01-08T15:04:32;15.85;;;9.95;;
77298;SDS011;66361;52.034;20.656;2023-01-08T15:08:35;20.60;;;11.27;;
77298;SDS011;66361;52.034;20.656;2023-01-08T15:12:40;16.45;;;8.93;;
77298;SDS011;66361;52.034;20.656;2023-01-08T15:16:44;23.38;;;13.88;;
77298;SDS011;66361;52.034;20.656;2023-01-08T15:20:49;28.40;;;14.57;;
77298;SDS011;66361;52.034;20.656;2023-01-08T15:24:57;21.65;;;13.45;;
77298;SDS011;66361;52.034;20.656;2023-01-08T15:29:03;24.55;;;12.95;;
77298;SDS011;66361;52.034;20.656;2023-01-08T15:33:08;23.17;;;12.60;;
77298;SDS011;66361;52.034;20.656;2023-01-08T15:37:22;24.83;;;13.77;;
77298;SDS011;66361;52.034;20.656;2023-01-08T15:41:32;27.80;;;15.73;;
77298;SDS011;66361;52.034;20.656;2023-01-08T15:45:53;28.02;;;15.48;;
77298;SDS011;66361;52.034;20.656;2023-01-08T15:49:56;30.45;;;14.82;;
77298;SDS011;66361;52.034;20.656;2023-01-08T15:54:01;22.88;;;14.20;;
77298;SDS011;66361;52.034;20.656;2023-01-08T15:58:05;25.65;;;14.82;;
77298;SDS011;66361;52.034;20.656;2023-01-08T16:02:08;18.60;;;11.15;;
77298;SDS011;66361;52.034;20.656;2023-01-08T16:06:13;26.27;;;14.82;;
77298;SDS011;66361;52.034;20.656;2023-01-08T16:10:18;23.42;;;13.77;;
77298;SDS011;66361;52.034;20.656;2023-01-08T16:14:22;21.85;;;13.80;;
77298;SDS011;66361;52.034;20.656;2023-01-08T16:18:27;21.73;;;13.70;;
77298;SDS011;66361;52.034;20.656;2023-01-08T16:22:30;23.83;;;13.10;;
77298;SDS011;66361;52.034;20.656;2023-01-08T16:26:34;20.73;;;13.38;;
77298;SDS011;66361;52.034;20.656;2023-01-08T16:30:37;23.73;;;13.65;;
77298;SDS011;66361;52.034;20.656;2023-01-08T16:34:44;25.13;;;14.88;;
77298;SDS011;66361;52.034;20.656;2023-01-08T16:38:47;29.75;;;14.50;;
77298;SDS011;66361;52.034;20.656;2023-01-08T16:42:56;26.13;;;15.10;;
77298;SDS011;66361;52.034;20.656;2023-01-08T16:47:03;23.92;;;14.05;;
77298;SDS011;66361;52.034;20.656;2023-01-08T16:51:06;27.70;;;15.40;;
77298;SDS011;66361;52.034;20.656;2023-01-08T16:59:14;23.80;;;13.57;;
77298;SDS011;66361;52.034;20.656;2023-01-08T17:03:23;28.35;;;14.50;;
77298;SDS011;66361;52.034;20.656;2023-01-08T17:07:27;28.25;;;15.07;;
77298;SDS011;66361;52.034;20.656;2023-01-08T17:11:30;28.80;;;16.05;;
77298;SDS011;66361;52.034;20.656;2023-01-08T17:15:34;18.17;;;11.25;;
77298;SDS011;66361;52.034;20.656;2023-01-08T17:19:38;27.10;;;14.68;;
77298;SDS011;66361;52.034;20.656;2023-01-08T17:23:41;18.67;;;10.13;;
